sensor_id;sensor_type;location;lat;lon;timestamp;pressure;altitude;pressure_sealevel;temperature;humidity
63954;BME280;50128;52.094;5.232;2023-02-11T00:00:14;102080.0;;;0.06;100.0
63954;BME280;50128;52.094;5.232;2023-02-11T00:01:51;102083.0;;;0.1;100.0
63954;BME280;50128;52.094;5.232;2023-02-11T00:03:27;102080.0;;;0.11;100.0
63954;BME280;50128;52.094;5.232;2023-02-11T00:06:41;102081.0;;;0.1;100.0
63954;BME280;50128;52.094;5.232;2023-02-11T00:08:17;102078.0;;;0.09;100.0
63954;BME280;50128;52.094;5.232;2023-02-11T00:09:53;102069.0;;;0.04;100.0
63954;BME280;50128;52.094;5.232;2023-02-11T00:13:06;102066.0;;;0.08;100.0
63954;BME280;50128;52.094;5.232;2023-02-11T00:14:42;102063.0;;;0.06;100.0
63954;BME280;50128;52.094;5.232;2023-02-11T00:16:19;102064.0;;;-0.08;100.0
63954;BME280;50128;52.094;5.232;2023-02-11T00:19:32;102063.0;;;-0.08;100.0
63954;BME280;50128;52.094;5.232;2023-02-11T00:21:10;102064.0;;;-0.05;100.0
63954;BME280;50128;52.094;5.232;2023-02-11T00:22:47;102068.0;;;0.0;100.0
63954;BME280;50128;52.094;5.232;2023-02-11T00:24:24;102063.0;;;-0.07;100.0
63954;BME280;50128;52.094;5.232;2023-02-11T00:27:37;102063.0;;;0.01;100.0
63954;BME280;50128;52.094;5.232;2023-02-11T00:29:14;102062.0;;;0.05;100.0
63954;BME280;50128;52.094;5.232;2023-02-11T00:30:53;102055.0;;;-0.08;100.0
63954;BME280;50128;52.094;5.232;2023-02-11T00:34:06;102057.0;;;-0.05;100.0
63954;BME280;50128;52.094;5.232;2023-02-11T00:35:42;102063.0;;;-0.09;100.0
63954;BME280;50128;52.094;5.232;2023-02-11T00:37:18;102057.0;;;-0.1;100.0
63954;BME280;50128;52.094;5.232;2023-02-11T00:40:32;102055.0;;;-0.05;100.0
63954;BME280;50128;52.094;5.232;2023-02-11T00:42:10;102059.0;;;-0.07;100.0
63954;BME280;50128;52.094;5.232;2023-02-11T00:43:49;102057.0;;;-0.03;100.0
63954;BME280;50128;52.094;5.232;2023-02-11T00:45:26;102063.0;;;-0.12;100.0
63954;BME280;50128;52.094;5.232;2023-02-11T00:48:41;102069.0;;;-0.15;100.0
63954;BME280;50128;52.094;5.232;2023-02-11T00:50:17;102072.0;;;-0.15;100.0
63954;BME280;50128;52.094;5.232;2023-02-11T00:51:54;102076.0;;;-0.06;100.0
63954;BME280;50128;52.094;5.232;2023-02-11T00:55:08;102076.0;;;0.03;100.0
63954;BME280;50128;52.094;5.232;2023-02-11T00:56:44;102076.0;;;0.08;100.0
63954;BME280;50128;52.094;5.232;2023-02-11T00:58:21;102066.0;;;0.04;100.0
63954;BME280;50128;52.094;5.232;2023-02-11T00:59:57;102060.0;;;0.0;100.0
63954;BME280;50128;52.094;5.232;2023-02-11T01:03:10;102058.0;;;0.08;100.0
63954;BME280;50128;52.094;5.232;2023-02-11T01:04:47;102055.0;;;0.04;100.0
63954;BME280;50128;52.094;5.232;2023-02-11T01:06:23;102052.0;;;-0.03;100.0
63954;BME280;50128;52.094;5.232;2023-02-11T01:09:37;102050.0;;;0.01;100.0
63954;BME280;50128;52.094;5.232;2023-02-11T01:11:15;102044.0;;;-0.05;100.0
63954;BME280;50128;52.094;5.232;2023-02-11T01:12:53;102040.0;;;-0.07;100.0
63954;BME280;50128;52.094;5.232;2023-02-11T01:16:08;102036.0;;;-0.05;100.0
63954;BME280;50128;52.094;5.232;2023-02-11T01:17:45;102037.0;;;-0.05;100.0
63954;BME280;50128;52.094;5.232;2023-02-11T01:19:21;102035.0;;;-0.14;100.0
63954;BME280;50128;52.094;5.232;2023-02-11T01:20:57;102035.0;;;-0.07;100.0
63954;BME280;50128;52.094;5.232;2023-02-11T01:24:13;102036.0;;;-0.04;100.0
63954;BME280;50128;52.094;5.232;2023-02-11T01:25:49;102034.0;;;-0.14;100.0
63954;BME280;50128;52.094;5.232;2023-02-11T01:27:26;102022.0;;;-0.08;100.0
63954;BME280;50128;52.094;5.232;2023-02-11T01:30:38;102017.0;;;-0.17;100.0
63954;BME280;50128;52.094;5.232;2023-02-11T01:32:14;102017.0;;;-0.09;100.0
63954;BME280;50128;52.094;5.232;2023-02-11T01:33:51;102019.0;;;-0.02;100.0
63954;BME280;50128;52.094;5.232;2023-02-11T01:37:03;102025.0;;;-0.12;100.0
63954;BME280;50128;52.094;5.232;2023-02-11T01:38:40;102032.0;;;-0.05;100.0
63954;BME280;50128;52.094;5.232;2023-02-11T01:40:16;102040.0;;;-0.04;100.0
63954;BME280;50128;52.094;5.232;2023-02-11T01:41:53;102042.0;;;-0.12;100.0
63954;BME280;50128;52.094;5.232;2023-02-11T01:45:52;102042.0;;;-0.14;100.0
63954;BME280;50128;52.094;5.232;2023-02-11T01:48:46;102038.0;;;-0.28;100.0
63954;BME280;50128;52.094;5.232;2023-02-11T01:50:25;102042.0;;;-0.21;100.0
63954;BME280;50128;52.094;5.232;2023-02-11T01:57:58;102027.0;;;-0.37;100.0
63954;BME280;50128;52.094;5.232;2023-02-11T01:59:42;102035.0;;;-0.3;100.0
63954;BME280;50128;52.094;5.232;2023-02-11T02:01:26;102047.0;;;-0.36;100.0
63954;BME280;50128;52.094;5.232;2023-02-11T02:03:10;102047.0;;;-0.44;100.0
63954;BME280;50128;52.094;5.232;2023-02-11T02:04:52;102047.0;;;-0.45;100.0
63954;BME280;50128;52.094;5.232;2023-02-11T02:08:28;102043.0;;;-0.48;100.0
63954;BME280;50128;52.094;5.232;2023-02-11T02:10:19;102046.0;;;-0.56;100.0
63954;BME280;50128;52.094;5.232;2023-02-11T02:12:02;102045.0;;;-0.55;100.0
63954;BME280;50128;52.094;5.232;2023-02-11T02:13:39;102046.0;;;-0.57;100.0
63954;BME280;50128;52.094;5.232;2023-02-11T02:15:24;102035.0;;;-0.65;100.0
63954;BME280;50128;52.094;5.232;2023-02-11T02:18:41;102036.0;;;-0.63;100.0
63954;BME280;50128;52.094;5.232;2023-02-11T02:23:24;102042.0;;;-0.52;100.0
63954;BME280;50128;52.094;5.232;2023-02-11T02:25:19;102041.0;;;-0.6;100.0
63954;BME280;50128;52.094;5.232;2023-02-11T02:27:36;102042.0;;;-0.59;100.0
63954;BME280;50128;52.094;5.232;2023-02-11T02:33:05;102035.0;;;-0.77;100.0
63954;BME280;50128;52.094;5.232;2023-02-11T02:35:04;102036.0;;;-0.68;100.0
63954;BME280;50128;52.094;5.232;2023-02-11T02:36:50;102036.0;;;-0.72;100.0
63954;BME280;50128;52.094;5.232;2023-02-11T02:38:37;102033.0;;;-0.76;100.0
63954;BME280;50128;52.094;5.232;2023-02-11T02:41:58;102030.0;;;-0.78;100.0
63954;BME280;50128;52.094;5.232;2023-02-11T02:43:36;102024.0;;;-0.8;100.0
63954;BME280;50128;52.094;5.232;2023-02-11T02:45:17;102022.0;;;-0.76;100.0
63954;BME280;50128;52.094;5.232;2023-02-11T02:46:53;102019.0;;;-0.74;100.0
63954;BME280;50128;52.094;5.232;2023-02-11T02:50:10;102018.0;;;-0.68;100.0
63954;BME280;50128;52.094;5.232;2023-02-11T02:52:03;102018.0;;;-0.67;100.0
63954;BME280;50128;52.094;5.232;2023-02-11T02:54:11;102027.0;;;-0.73;100.0
63954;BME280;50128;52.094;5.232;2023-02-11T02:56:05;102027.0;;;-0.71;100.0
63954;BME280;50128;52.094;5.232;2023-02-11T02:58:02;102032.0;;;-0.74;100.0
63954;BME280;50128;52.094;5.232;2023-02-11T02:59:56;102035.0;;;-0.69;100.0
63954;BME280;50128;52.094;5.232;2023-02-11T03:01:43;102033.0;;;-0.71;100.0
63954;BME280;50128;52.094;5.232;2023-02-11T03:03:32;102030.0;;;-0.69;100.0
63954;BME280;50128;52.094;5.232;2023-02-11T03:07:00;102026.0;;;-0.74;100.0
63954;BME280;50128;52.094;5.232;2023-02-11T03:08:45;102024.0;;;-0.78;100.0
63954;BME280;50128;52.094;5.232;2023-02-11T03:10:26;102024.0;;;-0.75;100.0
63954;BME280;50128;52.094;5.232;2023-02-11T03:12:05;102022.0;;;-0.8;100.0
63954;BME280;50128;52.094;5.232;2023-02-11T03:15:25;102022.0;;;-0.76;100.0
63954;BME280;50128;52.094;5.232;2023-02-11T03:17:04;102022.0;;;-0.82;100.0
63954;BME280;50128;52.094;5.232;2023-02-11T03:18:43;102015.0;;;-0.79;100.0
63954;BME280;50128;52.094;5.232;2023-02-11T03:20:29;102008.0;;;-0.87;100.0
63954;BME280;50128;52.094;5.232;2023-02-11T03:23:53;102007.0;;;-0.86;100.0
63954;BME280;50128;52.094;5.232;2023-02-11T03:25:35;102006.0;;;-0.88;100.0
63954;BME280;50128;52.094;5.232;2023-02-11T03:27:19;102005.0;;;-0.85;100.0
63954;BME280;50128;52.094;5.232;2023-02-11T03:29:00;101992.0;;;-0.93;100.0
63954;BME280;50128;52.094;5.232;2023-02-11T03:30:48;101990.0;;;-1.07;100.0
63954;BME280;50128;52.094;5.232;2023-02-11T03:34:16;101986.0;;;-1.0;100.0
63954;BME280;50128;52.094;5.232;2023-02-11T03:35:56;101987.0;;;-1.05;100.0
63954;BME280;50128;52.094;5.232;2023-02-11T03:37:38;101992.0;;;-1.11;100.0
63954;BME280;50128;52.094;5.232;2023-02-11T03:39:20;101991.0;;;-1.06;100.0
63954;BME280;50128;52.094;5.232;2023-02-11T03:41:01;101993.0;;;-1.05;100.0
63954;BME280;50128;52.094;5.232;2023-02-11T03:44:21;101989.0;;;-1.06;100.0
63954;BME280;50128;52.094;5.232;2023-02-11T03:46:02;101998.0;;;-1.15;100.0
63954;BME280;50128;52.094;5.232;2023-02-11T03:47:43;101992.0;;;-1.15;100.0
63954;BME280;50128;52.094;5.232;2023-02-11T03:49:24;101991.0;;;-1.2;100.0
63954;BME280;50128;52.094;5.232;2023-02-11T03:52:45;101985.0;;;-1.26;100.0
63954;BME280;50128;52.094;5.232;2023-02-11T03:54:27;101980.0;;;-1.28;100.0
63954;BME280;50128;52.094;5.232;2023-02-11T03:56:08;101980.0;;;-1.33;100.0
63954;BME280;50128;52.094;5.232;2023-02-11T03:57:46;101976.0;;;-1.37;100.0
63954;BME280;50128;52.094;5.232;2023-02-11T04:01:01;101975.0;;;-1.39;100.0
63954;BME280;50128;52.094;5.232;2023-02-11T04:02:41;101972.0;;;-1.32;100.0
63954;BME280;50128;52.094;5.232;2023-02-11T04:04:19;101976.0;;;-1.33;100.0
63954;BME280;50128;52.094;5.232;2023-02-11T04:07:31;101985.0;;;-1.25;100.0
63954;BME280;50128;52.094;5.232;2023-02-11T04:09:08;101983.0;;;-1.3;100.0
63954;BME280;50128;52.094;5.232;2023-02-11T04:10:44;101988.0;;;-1.27;100.0
63954;BME280;50128;52.094;5.232;2023-02-11T04:13:57;101994.0;;;-1.23;100.0
63954;BME280;50128;52.094;5.232;2023-02-11T04:15:33;101989.0;;;-1.18;100.0
63954;BME280;50128;52.094;5.232;2023-02-11T04:17:10;101984.0;;;-1.15;100.0
63954;BME280;50128;52.094;5.232;2023-02-11T04:18:46;101987.0;;;-1.17;100.0
63954;BME280;50128;52.094;5.232;2023-02-11T04:21:58;101988.0;;;-1.21;100.0
63954;BME280;50128;52.094;5.232;2023-02-11T04:23:36;101990.0;;;-1.13;100.0
63954;BME280;50128;52.094;5.232;2023-02-11T04:25:13;101981.0;;;-1.04;100.0
63954;BME280;50128;52.094;5.232;2023-02-11T04:28:28;101983.0;;;-1.02;100.0
63954;BME280;50128;52.094;5.232;2023-02-11T04:30:06;101992.0;;;-0.93;100.0
63954;BME280;50128;52.094;5.232;2023-02-11T04:31:45;101994.0;;;-0.94;100.0
63954;BME280;50128;52.094;5.232;2023-02-11T04:33:22;101997.0;;;-0.89;100.0
63954;BME280;50128;52.094;5.232;2023-02-11T04:36:35;102001.0;;;-0.78;100.0
63954;BME280;50128;52.094;5.232;2023-02-11T04:38:11;102005.0;;;-0.78;100.0
63954;BME280;50128;52.094;5.232;2023-02-11T04:39:48;102003.0;;;-0.8;100.0
63954;BME280;50128;52.094;5.232;2023-02-11T04:43:00;102002.0;;;-0.68;100.0
63954;BME280;50128;52.094;5.232;2023-02-11T04:44:37;102005.0;;;-0.73;100.0
63954;BME280;50128;52.094;5.232;2023-02-11T04:46:13;102003.0;;;-0.66;100.0
63954;BME280;50128;52.094;5.232;2023-02-11T04:49:25;101997.0;;;-0.77;100.0
63954;BME280;50128;52.094;5.232;2023-02-11T04:51:02;101996.0;;;-0.88;100.0
63954;BME280;50128;52.094;5.232;2023-02-11T04:52:38;102000.0;;;-0.78;100.0
63954;BME280;50128;52.094;5.232;2023-02-11T04:54:15;102002.0;;;-0.77;100.0
63954;BME280;50128;52.094;5.232;2023-02-11T04:57:28;101998.0;;;-0.7;100.0
63954;BME280;50128;52.094;5.232;2023-02-11T04:59:05;102002.0;;;-0.68;100.0
63954;BME280;50128;52.094;5.232;2023-02-11T05:00:42;102003.0;;;-0.63;100.0
63954;BME280;50128;52.094;5.232;2023-02-11T05:03:55;102001.0;;;-0.6;100.0
63954;BME280;50128;52.094;5.232;2023-02-11T05:05:32;101998.0;;;-0.57;100.0
63954;BME280;50128;52.094;5.232;2023-02-11T05:07:08;102006.0;;;-0.46;100.0
63954;BME280;50128;52.094;5.232;2023-02-11T05:10:20;102002.0;;;-0.52;100.0
63954;BME280;50128;52.094;5.232;2023-02-11T05:11:57;102005.0;;;-0.6;100.0
63954;BME280;50128;52.094;5.232;2023-02-11T05:13:33;101998.0;;;-0.42;100.0
63954;BME280;50128;52.094;5.232;2023-02-11T05:15:09;102000.0;;;-0.39;100.0
63954;BME280;50128;52.094;5.232;2023-02-11T05:18:22;101994.0;;;-0.39;100.0
63954;BME280;50128;52.094;5.232;2023-02-11T05:19:58;102001.0;;;-0.31;100.0
63954;BME280;50128;52.094;5.232;2023-02-11T05:21:34;102000.0;;;-0.34;100.0
63954;BME280;50128;52.094;5.232;2023-02-11T05:24:47;102001.0;;;-0.27;100.0
63954;BME280;50128;52.094;5.232;2023-02-11T05:26:23;102005.0;;;-0.32;100.0
63954;BME280;50128;52.094;5.232;2023-02-11T05:28:01;102005.0;;;-0.24;100.0
63954;BME280;50128;52.094;5.232;2023-02-11T05:31:13;102005.0;;;-0.27;100.0
63954;BME280;50128;52.094;5.232;2023-02-11T05:32:49;102005.0;;;-0.27;100.0
63954;BME280;50128;52.094;5.232;2023-02-11T05:34:26;102008.0;;;-0.3;100.0
63954;BME280;50128;52.094;5.232;2023-02-11T05:36:05;102006.0;;;-0.22;100.0
63954;BME280;50128;52.094;5.232;2023-02-11T05:39:19;102005.0;;;-0.27;100.0
63954;BME280;50128;52.094;5.232;2023-02-11T05:40:56;102007.0;;;-0.26;100.0
63954;BME280;50128;52.094;5.232;2023-02-11T05:42:32;102002.0;;;-0.3;100.0
63954;BME280;50128;52.094;5.232;2023-02-11T05:45:44;102005.0;;;-0.25;100.0
63954;BME280;50128;52.094;5.232;2023-02-11T05:47:21;102002.0;;;-0.17;100.0
63954;BME280;50128;52.094;5.232;2023-02-11T05:48:57;101999.0;;;-0.23;100.0
63954;BME280;50128;52.094;5.232;2023-02-11T05:52:09;102002.0;;;-0.31;100.0
63954;BME280;50128;52.094;5.232;2023-02-11T05:53:45;101997.0;;;-0.14;100.0
63954;BME280;50128;52.094;5.232;2023-02-11T05:55:23;101995.0;;;-0.14;100.0
63954;BME280;50128;52.094;5.232;2023-02-11T05:56:59;101990.0;;;-0.2;100.0
63954;BME280;50128;52.094;5.232;2023-02-11T06:00:13;101993.0;;;-0.24;100.0
63954;BME280;50128;52.094;5.232;2023-02-11T06:01:50;101998.0;;;-0.25;100.0
63954;BME280;50128;52.094;5.232;2023-02-11T06:03:27;102006.0;;;-0.17;100.0
63954;BME280;50128;52.094;5.232;2023-02-11T06:06:39;102007.0;;;-0.25;100.0
63954;BME280;50128;52.094;5.232;2023-02-11T06:08:15;102002.0;;;-0.22;100.0
63954;BME280;50128;52.094;5.232;2023-02-11T06:09:51;102001.0;;;-0.17;100.0
63954;BME280;50128;52.094;5.232;2023-02-11T06:13:03;102003.0;;;-0.18;100.0
63954;BME280;50128;52.094;5.232;2023-02-11T06:14:40;102005.0;;;-0.24;100.0
63954;BME280;50128;52.094;5.232;2023-02-11T06:16:16;102005.0;;;-0.28;100.0
63954;BME280;50128;52.094;5.232;2023-02-11T06:19:28;102013.0;;;-0.26;100.0
63954;BME280;50128;52.094;5.232;2023-02-11T06:21:06;102010.0;;;-0.14;100.0
63954;BME280;50128;52.094;5.232;2023-02-11T06:22:43;102012.0;;;-0.05;100.0
63954;BME280;50128;52.094;5.232;2023-02-11T06:24:19;102016.0;;;-0.05;100.0
63954;BME280;50128;52.094;5.232;2023-02-11T06:27:37;102009.0;;;-0.03;100.0
63954;BME280;50128;52.094;5.232;2023-02-11T06:29:15;102010.0;;;-0.07;100.0
63954;BME280;50128;52.094;5.232;2023-02-11T06:30:50;102010.0;;;-0.02;100.0
63954;BME280;50128;52.094;5.232;2023-02-11T06:34:04;102012.0;;;-0.1;100.0
63954;BME280;50128;52.094;5.232;2023-02-11T06:35:40;102012.0;;;-0.06;100.0
63954;BME280;50128;52.094;5.232;2023-02-11T06:37:16;102012.0;;;-0.11;100.0
63954;BME280;50128;52.094;5.232;2023-02-11T06:38:52;102017.0;;;-0.07;100.0
63954;BME280;50128;52.094;5.232;2023-02-11T06:42:06;102017.0;;;0.01;100.0
63954;BME280;50128;52.094;5.232;2023-02-11T06:43:42;102016.0;;;-0.02;100.0
63954;BME280;50128;52.094;5.232;2023-02-11T06:45:19;102018.0;;;-0.02;100.0
63954;BME280;50128;52.094;5.232;2023-02-11T06:48:33;102023.0;;;0.02;100.0
63954;BME280;50128;52.094;5.232;2023-02-11T06:50:12;102018.0;;;-0.05;100.0
63954;BME280;50128;52.094;5.232;2023-02-11T06:51:49;102019.0;;;-0.08;100.0
63954;BME280;50128;52.094;5.232;2023-02-11T06:55:01;102017.0;;;-0.07;100.0
63954;BME280;50128;52.094;5.232;2023-02-11T06:56:39;102015.0;;;-0.04;100.0
63954;BME280;50128;52.094;5.232;2023-02-11T06:58:16;102006.0;;;-0.11;100.0
63954;BME280;50128;52.094;5.232;2023-02-11T06:59:52;102003.0;;;-0.17;100.0
63954;BME280;50128;52.094;5.232;2023-02-11T07:03:05;102000.0;;;-0.19;100.0
63954;BME280;50128;52.094;5.232;2023-02-11T07:04:41;102005.0;;;-0.2;100.0
63954;BME280;50128;52.094;5.232;2023-02-11T07:06:19;102011.0;;;-0.17;100.0
63954;BME280;50128;52.094;5.232;2023-02-11T07:09:32;102008.0;;;-0.22;100.0
63954;BME280;50128;52.094;5.232;2023-02-11T07:11:09;102015.0;;;-0.18;100.0
63954;BME280;50128;52.094;5.232;2023-02-11T07:12:47;102018.0;;;-0.12;100.0
63954;BME280;50128;52.094;5.232;2023-02-11T07:14:23;102020.0;;;-0.05;100.0
63954;BME280;50128;52.094;5.232;2023-02-11T07:17:41;102027.0;;;-0.13;100.0
63954;BME280;50128;52.094;5.232;2023-02-11T07:19:18;102030.0;;;-0.02;100.0
63954;BME280;50128;52.094;5.232;2023-02-11T07:20:54;102033.0;;;-0.11;100.0
63954;BME280;50128;52.094;5.232;2023-02-11T07:24:06;102034.0;;;0.04;100.0
63954;BME280;50128;52.094;5.232;2023-02-11T07:25:45;102035.0;;;-0.02;100.0
63954;BME280;50128;52.094;5.232;2023-02-11T07:27:21;102036.0;;;0.05;100.0
63954;BME280;50128;52.094;5.232;2023-02-11T07:30:33;102034.0;;;0.13;100.0
63954;BME280;50128;52.094;5.232;2023-02-11T07:32:11;102037.0;;;0.08;100.0
63954;BME280;50128;52.094;5.232;2023-02-11T07:35:24;102048.0;;;0.18;100.0
63954;BME280;50128;52.094;5.232;2023-02-11T07:38:37;102044.0;;;0.09;100.0
63954;BME280;50128;52.094;5.232;2023-02-11T07:40:14;102047.0;;;0.08;100.0
63954;BME280;50128;52.094;5.232;2023-02-11T07:41:50;102055.0;;;0.17;100.0
63954;BME280;50128;52.094;5.232;2023-02-11T07:45:04;102055.0;;;0.23;100.0
63954;BME280;50128;52.094;5.232;2023-02-11T07:46:43;102057.0;;;0.24;100.0
63954;BME280;50128;52.094;5.232;2023-02-11T07:48:19;102057.0;;;0.21;100.0
63954;BME280;50128;52.094;5.232;2023-02-11T07:49:55;102059.0;;;0.27;100.0
63954;BME280;50128;52.094;5.232;2023-02-11T07:53:08;102059.0;;;0.35;100.0
63954;BME280;50128;52.094;5.232;2023-02-11T07:54:44;102059.0;;;0.34;100.0
63954;BME280;50128;52.094;5.232;2023-02-11T07:56:23;102055.0;;;0.33;100.0
63954;BME280;50128;52.094;5.232;2023-02-11T07:59:36;102052.0;;;0.25;100.0
63954;BME280;50128;52.094;5.232;2023-02-11T08:01:14;102052.0;;;0.3;100.0
63954;BME280;50128;52.094;5.232;2023-02-11T08:02:52;102050.0;;;0.22;100.0
63954;BME280;50128;52.094;5.232;2023-02-11T08:07:42;102055.0;;;0.26;100.0
63954;BME280;50128;52.094;5.232;2023-02-11T08:09:19;102052.0;;;0.27;100.0
63954;BME280;50128;52.094;5.232;2023-02-11T08:10:55;102060.0;;;0.25;100.0
63954;BME280;50128;52.094;5.232;2023-02-11T08:14:07;102061.0;;;0.22;100.0
63954;BME280;50128;52.094;5.232;2023-02-11T08:15:45;102069.0;;;0.29;100.0
63954;BME280;50128;52.094;5.232;2023-02-11T08:17:21;102070.0;;;0.3;100.0
63954;BME280;50128;52.094;5.232;2023-02-11T08:20:37;102066.0;;;0.22;100.0
63954;BME280;50128;52.094;5.232;2023-02-11T08:22:13;102074.0;;;0.26;100.0
63954;BME280;50128;52.094;5.232;2023-02-11T08:23:49;102067.0;;;0.24;100.0
63954;BME280;50128;52.094;5.232;2023-02-11T08:27:03;102068.0;;;0.26;100.0
63954;BME280;50128;52.094;5.232;2023-02-11T08:28:40;102068.0;;;0.24;100.0
63954;BME280;50128;52.094;5.232;2023-02-11T08:30:18;102070.0;;;0.31;100.0
63954;BME280;50128;52.094;5.232;2023-02-11T08:31:54;102068.0;;;0.34;100.0
63954;BME280;50128;52.094;5.232;2023-02-11T08:35:07;102071.0;;;0.29;100.0
63954;BME280;50128;52.094;5.232;2023-02-11T08:36:45;102072.0;;;0.48;100.0
63954;BME280;50128;52.094;5.232;2023-02-11T08:38:21;102080.0;;;0.48;100.0
63954;BME280;50128;52.094;5.232;2023-02-11T08:41:34;102082.0;;;0.51;100.0
63954;BME280;50128;52.094;5.232;2023-02-11T08:43:10;102086.0;;;0.49;100.0
63954;BME280;50128;52.094;5.232;2023-02-11T08:44:46;102086.0;;;0.47;100.0
63954;BME280;50128;52.094;5.232;2023-02-11T08:48:00;102083.0;;;0.49;100.0
63954;BME280;50128;52.094;5.232;2023-02-11T08:49:36;102089.0;;;0.52;100.0
63954;BME280;50128;52.094;5.232;2023-02-11T08:51:14;102089.0;;;0.61;100.0
63954;BME280;50128;52.094;5.232;2023-02-11T08:52:52;102086.0;;;0.57;100.0
63954;BME280;50128;52.094;5.232;2023-02-11T08:56:07;102090.0;;;0.59;100.0
63954;BME280;50128;52.094;5.232;2023-02-11T08:57:45;102089.0;;;0.58;100.0
63954;BME280;50128;52.094;5.232;2023-02-11T08:59:21;102086.0;;;0.59;100.0
63954;BME280;50128;52.094;5.232;2023-02-11T09:02:34;102085.0;;;0.65;100.0
63954;BME280;50128;52.094;5.232;2023-02-11T09:04:10;102090.0;;;0.7;100.0
63954;BME280;50128;52.094;5.232;2023-02-11T09:05:47;102089.0;;;0.7;100.0
63954;BME280;50128;52.094;5.232;2023-02-11T09:07:25;102093.0;;;0.74;100.0
63954;BME280;50128;52.094;5.232;2023-02-11T09:10:39;102096.0;;;0.83;100.0
63954;BME280;50128;52.094;5.232;2023-02-11T09:12:15;102099.0;;;0.84;100.0
63954;BME280;50128;52.094;5.232;2023-02-11T09:13:51;102103.0;;;0.91;100.0
63954;BME280;50128;52.094;5.232;2023-02-11T09:17:05;102106.0;;;0.95;100.0
63954;BME280;50128;52.094;5.232;2023-02-11T09:18:41;102109.0;;;0.9;100.0
63954;BME280;50128;52.094;5.232;2023-02-11T09:20:17;102107.0;;;0.93;100.0
63954;BME280;50128;52.094;5.232;2023-02-11T09:23:34;102111.0;;;0.99;100.0
63954;BME280;50128;52.094;5.232;2023-02-11T09:25:10;102120.0;;;0.99;100.0
63954;BME280;50128;52.094;5.232;2023-02-11T09:26:48;102117.0;;;1.03;100.0
63954;BME280;50128;52.094;5.232;2023-02-11T09:28:25;102119.0;;;0.99;100.0
63954;BME280;50128;52.094;5.232;2023-02-11T09:31:38;102125.0;;;0.99;100.0
63954;BME280;50128;52.094;5.232;2023-02-11T09:33:14;102122.0;;;1.04;100.0
63954;BME280;50128;52.094;5.232;2023-02-11T09:34:51;102118.0;;;1.1;100.0
63954;BME280;50128;52.094;5.232;2023-02-11T09:38:06;102115.0;;;1.23;100.0
63954;BME280;50128;52.094;5.232;2023-02-11T09:39:44;102115.0;;;1.3;100.0
63954;BME280;50128;52.094;5.232;2023-02-11T09:41:32;102120.0;;;1.23;100.0
63954;BME280;50128;52.094;5.232;2023-02-11T09:43:44;102122.0;;;1.23;100.0
63954;BME280;50128;52.094;5.232;2023-02-11T09:45:24;102127.0;;;1.28;100.0
63954;BME280;50128;52.094;5.232;2023-02-11T09:48:44;102127.0;;;1.35;100.0
63954;BME280;50128;52.094;5.232;2023-02-11T09:50:27;102131.0;;;1.35;100.0
63954;BME280;50128;52.094;5.232;2023-02-11T09:52:06;102134.0;;;1.31;100.0
63954;BME280;50128;52.094;5.232;2023-02-11T09:53:50;102131.0;;;1.25;100.0
63954;BME280;50128;52.094;5.232;2023-02-11T09:55:33;102130.0;;;1.32;100.0
63954;BME280;50128;52.094;5.232;2023-02-11T09:58:47;102133.0;;;1.32;100.0
63954;BME280;50128;52.094;5.232;2023-02-11T10:00:27;102134.0;;;1.33;100.0
63954;BME280;50128;52.094;5.232;2023-02-11T10:02:12;102143.0;;;1.45;100.0
63954;BME280;50128;52.094;5.232;2023-02-11T10:04:00;102152.0;;;1.48;100.0
63954;BME280;50128;52.094;5.232;2023-02-11T10:07:39;102152.0;;;1.45;100.0
63954;BME280;50128;52.094;5.232;2023-02-11T10:09:43;102155.0;;;1.55;100.0
63954;BME280;50128;52.094;5.232;2023-02-11T10:11:33;102157.0;;;1.63;100.0
63954;BME280;50128;52.094;5.232;2023-02-11T10:13:34;102162.0;;;1.67;100.0
63954;BME280;50128;52.094;5.232;2023-02-11T10:15:22;102170.0;;;1.73;100.0
63954;BME280;50128;52.094;5.232;2023-02-11T10:17:12;102169.0;;;1.78;100.0
63954;BME280;50128;52.094;5.232;2023-02-11T10:19:03;102169.0;;;1.76;100.0
63954;BME280;50128;52.094;5.232;2023-02-11T10:21:02;102166.0;;;1.76;100.0
63954;BME280;50128;52.094;5.232;2023-02-11T10:22:51;102163.0;;;1.94;100.0
63954;BME280;50128;52.094;5.232;2023-02-11T10:26:12;102169.0;;;1.94;100.0
63954;BME280;50128;52.094;5.232;2023-02-11T10:27:48;102180.0;;;1.9;100.0
63954;BME280;50128;52.094;5.232;2023-02-11T10:29:34;102181.0;;;1.87;100.0
63954;BME280;50128;52.094;5.232;2023-02-11T10:31:17;102184.0;;;1.94;100.0
63954;BME280;50128;52.094;5.232;2023-02-11T10:34:40;102190.0;;;1.96;100.0
63954;BME280;50128;52.094;5.232;2023-02-11T10:36:17;102189.0;;;2.04;100.0
63954;BME280;50128;52.094;5.232;2023-02-11T10:37:55;102184.0;;;2.0;100.0
63954;BME280;50128;52.094;5.232;2023-02-11T10:39:31;102177.0;;;2.02;100.0
63954;BME280;50128;52.094;5.232;2023-02-11T10:42:50;102182.0;;;2.14;100.0
63954;BME280;50128;52.094;5.232;2023-02-11T10:44:31;102187.0;;;2.14;100.0
63954;BME280;50128;52.094;5.232;2023-02-11T10:46:15;102187.0;;;2.04;100.0
63954;BME280;50128;52.094;5.232;2023-02-11T10:47:54;102186.0;;;2.06;100.0
63954;BME280;50128;52.094;5.232;2023-02-11T10:51:17;102183.0;;;2.09;100.0
63954;BME280;50128;52.094;5.232;2023-02-11T10:53:11;102183.0;;;2.19;100.0
63954;BME280;50128;52.094;5.232;2023-02-11T10:54:58;102185.0;;;2.23;100.0
63954;BME280;50128;52.094;5.232;2023-02-11T10:56:50;102188.0;;;2.36;100.0
63954;BME280;50128;52.094;5.232;2023-02-11T10:58:39;102183.0;;;2.44;100.0
63954;BME280;50128;52.094;5.232;2023-02-11T11:00:26;102181.0;;;2.46;100.0
63954;BME280;50128;52.094;5.232;2023-02-11T11:03:59;102180.0;;;2.54;100.0
63954;BME280;50128;52.094;5.232;2023-02-11T11:05:44;102176.0;;;2.65;100.0
63954;BME280;50128;52.094;5.232;2023-02-11T11:07:25;102177.0;;;2.65;100.0
63954;BME280;50128;52.094;5.232;2023-02-11T11:09:03;102183.0;;;2.75;100.0
63954;BME280;50128;52.094;5.232;2023-02-11T11:12:27;102182.0;;;2.84;100.0
63954;BME280;50128;52.094;5.232;2023-02-11T11:14:17;102184.0;;;2.96;99.61
63954;BME280;50128;52.094;5.232;2023-02-11T11:16:27;102189.0;;;3.02;98.54
63954;BME280;50128;52.094;5.232;2023-02-11T11:18:14;102198.0;;;3.03;98.34
63954;BME280;50128;52.094;5.232;2023-02-11T11:19:51;102205.0;;;3.1;98.22
63954;BME280;50128;52.094;5.232;2023-02-11T11:21:30;102205.0;;;3.15;98.2
63954;BME280;50128;52.094;5.232;2023-02-11T11:24:55;102208.0;;;2.97;97.37